KGFL

Floyd Bennett Memorial Airport

Glens Falls, New York, USA
METAR KGFL 162153Z AUTO 35009KT 10SM OVC060 02/00 A2998 RMK AO2 RAE27 SLP159 P0002 T00170000
Observed Flight Rules
Dec-16 @ 21:53 UTC (53 minutes ago) Visual Flight Rules
Wind Visibility Clouds
350° at 9 knots 10 miles
  • Overcast at 6,000' AGL
Temperatures Readings Precipitation
Current 2°C / 36°F
Dewpoint 0°C / 32°F
Humidity 87%
Altimeter 29.98" Hg
Pressure 1015.9 hPa
Elevation 103
Current Rain 0.02
METAR KGFL 162153Z AUTO 35009KT 10SM OVC060 02/00 A2998 RMK AO2 RAE27 SLP159 P0002 T00170000
Observed Flight Rules
Dec-16 @ 21:53 UTC
(53 minutes ago)
VFR
Wind Visibility
350° at 9 knots 10 miles
Clouds
  • Overcast at 6,000' AGL
Temperature Dewpoint
2°C / 36°F 0°C / 32°F
Humidity Altimeter Pressure
87% 29.98" Hg 1015.9 hPa
Current Rain
0.02